createdAt,value
2022-08-11T00:01:16.212Z,1.33
2022-08-11T00:03:49.557Z,1.15
2022-08-11T00:06:26.813Z,1.20
2022-08-11T00:08:56.222Z,1.60
2022-08-11T00:11:34.179Z,1.35
2022-08-11T00:14:04.744Z,1.33
2022-08-11T00:16:33.775Z,1.35
2022-08-11T00:19:03.690Z,1.08
2022-08-11T00:22:03.905Z,0.95
2022-08-11T00:24:50.961Z,1.15
2022-08-11T00:27:33.290Z,1.58
2022-08-11T00:30:01.513Z,1.33
2022-08-11T00:32:30.980Z,1.20
2022-08-11T00:35:51.948Z,1.12
2022-08-11T00:37:54.154Z,1.02
2022-08-11T00:40:28.248Z,1.10
2022-08-11T00:43:10.884Z,1.20
2022-08-11T00:46:10.668Z,1.08
2022-08-11T00:48:48.567Z,1.20
2022-08-11T00:51:57.707Z,1.25
2022-08-11T00:55:01.575Z,1.23
2022-08-11T00:57:59.863Z,1.40
2022-08-11T01:00:34.363Z,1.02
2022-08-11T01:03:18.028Z,1.52
2022-08-11T01:06:05.413Z,0.88
2022-08-11T01:09:08.588Z,1.27
2022-08-11T01:12:06.344Z,1.20
2022-08-11T01:15:16.087Z,1.23
2022-08-11T01:18:17.003Z,1.00
2022-08-11T01:21:40.013Z,1.05
2022-08-11T01:25:04.327Z,1.17
2022-08-11T01:28:10.245Z,1.17
2022-08-11T01:31:14.435Z,1.23
2022-08-11T01:34:34.723Z,1.45
2022-08-11T01:37:39.824Z,1.10
2022-08-11T01:40:30.702Z,0.90
2022-08-11T01:43:32.864Z,1.30
2022-08-11T01:46:06.154Z,1.20
2022-08-11T01:48:42.435Z,2.20
2022-08-11T01:51:23.799Z,1.35
2022-08-11T01:53:58.196Z,1.00
2022-08-11T01:56:38.267Z,1.00
2022-08-11T01:59:18.882Z,1.10
2022-08-11T02:01:59.010Z,1.50
2022-08-11T02:04:36.962Z,1.33
2022-08-11T02:07:15.340Z,1.30
2022-08-11T02:10:01.697Z,1.08
2022-08-11T02:12:52.590Z,1.20
2022-08-11T02:15:28.750Z,1.30
2022-08-11T02:18:06.090Z,1.20
2022-08-11T02:21:00.750Z,0.82
2022-08-11T02:24:04.126Z,1.30
2022-08-11T02:26:36.596Z,1.90
2022-08-11T02:29:14.400Z,1.20
2022-08-11T02:32:25.525Z,1.73
2022-08-11T02:35:10.945Z,1.30
2022-08-11T02:37:50.962Z,1.12
2022-08-11T02:40:25.609Z,1.30
2022-08-11T02:43:10.212Z,1.30
2022-08-11T02:45:54.530Z,1.08
2022-08-11T02:48:51.909Z,1.08
2022-08-11T02:51:28.788Z,1.23
2022-08-11T02:54:07.951Z,1.40
2022-08-11T02:56:47.135Z,1.30
2022-08-11T02:59:44.695Z,0.95
2022-08-11T03:02:22.728Z,1.25
2022-08-11T03:05:04.136Z,1.42
2022-08-11T03:07:43.357Z,1.10
2022-08-11T03:10:19.203Z,1.17
2022-08-11T03:13:10.471Z,1.23
2022-08-11T03:16:04.765Z,1.37
2022-08-11T03:18:40.830Z,1.40
2022-08-11T03:21:19.051Z,1.65
2022-08-11T03:23:56.843Z,1.30
2022-08-11T03:26:32.924Z,1.55
2022-08-11T03:29:08.884Z,1.42
2022-08-11T03:31:47.299Z,1.23
2022-08-11T03:34:18.334Z,1.35
2022-08-11T03:37:16.383Z,1.50
2022-08-11T03:40:00.390Z,1.40
2022-08-11T03:42:36.136Z,1.10
2022-08-11T03:45:16.513Z,1.33
2022-08-11T03:48:01.415Z,1.50
2022-08-11T03:50:55.667Z,1.37
2022-08-11T03:53:40.926Z,1.60
2022-08-11T03:56:30.224Z,1.23
2022-08-11T03:59:32.764Z,1.65
2022-08-11T04:02:33.821Z,1.40
2022-08-11T04:05:38.358Z,1.20
2022-08-11T04:08:37.472Z,1.45
2022-08-11T04:11:51.299Z,1.05
2022-08-11T04:15:07.811Z,1.65
2022-08-11T04:18:02.061Z,0.93
2022-08-11T04:20:50.487Z,0.95
2022-08-11T04:24:35.011Z,1.40
2022-08-11T04:27:14.350Z,1.27
2022-08-11T04:30:04.002Z,1.58
2022-08-11T04:33:03.186Z,1.40
2022-08-11T04:35:47.336Z,1.25
2022-08-11T04:38:59.329Z,1.42
2022-08-11T04:42:31.007Z,1.35
2022-08-11T04:45:26.755Z,1.50
2022-08-11T04:48:29.290Z,1.90
2022-08-11T04:51:27.041Z,1.60
2022-08-11T04:54:28.313Z,1.45
2022-08-11T04:57:24.002Z,1.15
2022-08-11T05:00:24.127Z,1.62
2022-08-11T05:03:33.434Z,1.60
2022-08-11T05:06:38.159Z,1.15
2022-08-11T05:09:23.581Z,1.48
2022-08-11T05:12:07.191Z,1.52
2022-08-11T05:14:55.080Z,1.55
2022-08-11T05:17:49.735Z,1.62
2022-08-11T05:20:35.211Z,1.40
2022-08-11T05:23:25.476Z,1.12
2022-08-11T05:26:47.611Z,1.40
2022-08-11T05:29:27.316Z,1.95
2022-08-11T05:32:17.719Z,1.12
2022-08-11T05:34:53.721Z,1.30
2022-08-11T05:37:32.963Z,1.70
2022-08-11T05:40:25.208Z,1.60
2022-08-11T05:43:17.171Z,1.55
2022-08-11T05:46:07.126Z,1.52
2022-08-11T05:48:55.728Z,1.50
2022-08-11T05:51:55.024Z,1.70
2022-08-11T05:54:46.707Z,2.05
2022-08-11T05:57:39.677Z,1.62
2022-08-11T06:00:12.585Z,2.05
2022-08-11T06:02:43.193Z,2.05
2022-08-11T06:05:14.188Z,1.75
2022-08-11T06:07:47.309Z,2.55
2022-08-11T06:10:28.296Z,1.98
2022-08-11T06:13:01.088Z,2.00
2022-08-11T06:15:34.624Z,2.08
2022-08-11T06:18:04.135Z,1.90
2022-08-11T06:20:37.399Z,1.77
2022-08-11T06:23:08.673Z,2.22
2022-08-11T06:25:38.142Z,2.30
2022-08-11T06:28:08.531Z,2.35
2022-08-11T06:30:40.830Z,2.65
2022-08-11T06:33:12.021Z,2.22
2022-08-11T06:35:49.422Z,2.03
2022-08-11T06:38:40.494Z,2.25
2022-08-11T06:41:34.377Z,2.12
2022-08-11T06:44:17.589Z,2.08
2022-08-11T06:46:50.797Z,2.67
2022-08-11T06:49:38.670Z,2.67
2022-08-11T06:52:34.011Z,2.37
2022-08-11T06:55:06.270Z,2.70
2022-08-11T06:57:53.106Z,2.45
2022-08-11T07:00:30.675Z,2.45
2022-08-11T07:03:08.231Z,2.35
2022-08-11T07:05:45.668Z,2.47
2022-08-11T07:08:52.615Z,2.45
2022-08-11T07:12:13.523Z,2.30
2022-08-11T07:15:07.578Z,2.78
2022-08-11T07:17:40.587Z,2.70
2022-08-11T07:20:30.052Z,2.20
2022-08-11T07:23:19.864Z,2.70
2022-08-11T07:26:10.675Z,2.33
2022-08-11T07:28:59.136Z,3.00
2022-08-11T07:31:36.998Z,3.28
2022-08-11T07:34:17.958Z,3.10
2022-08-11T07:36:52.329Z,2.95
2022-08-11T07:39:22.620Z,2.08
2022-08-11T07:41:52.777Z,2.40
2022-08-11T07:44:21.975Z,3.17
2022-08-11T07:47:09.379Z,3.60
2022-08-11T07:49:57.353Z,3.22
2022-08-11T07:52:34.005Z,3.20
2022-08-11T07:55:05.963Z,3.20
2022-08-11T07:58:15.586Z,3.17
2022-08-11T08:01:03.791Z,3.10
2022-08-11T08:03:58.098Z,3.12
2022-08-11T08:06:45.832Z,2.80
2022-08-11T08:09:36.931Z,3.22
2022-08-11T08:12:24.788Z,2.90
2022-08-11T08:15:12.266Z,2.67
2022-08-11T08:18:09.041Z,3.00
2022-08-11T08:20:47.845Z,3.08
2022-08-11T08:23:17.359Z,2.90
2022-08-11T08:25:48.044Z,3.80
2022-08-11T08:28:18.546Z,3.03
2022-08-11T08:30:51.175Z,3.03
2022-08-11T08:33:22.607Z,2.58
2022-08-11T08:36:12.586Z,3.05
2022-08-11T08:38:42.236Z,2.60
2022-08-11T08:41:13.266Z,2.78
2022-08-11T08:43:49.246Z,2.58
2022-08-11T08:46:26.689Z,3.17
2022-08-11T08:48:57.369Z,2.78
2022-08-11T08:51:58.544Z,2.65
2022-08-11T08:54:34.066Z,2.65
2022-08-11T08:57:05.394Z,2.25
2022-08-11T08:59:48.999Z,2.28
2022-08-11T09:02:22.125Z,2.30
2022-08-11T09:05:10.013Z,2.25
2022-08-11T09:07:40.712Z,2.20
2022-08-11T09:10:10.821Z,2.00
2022-08-11T09:12:43.238Z,2.30
2022-08-11T09:15:14.048Z,1.65
2022-08-11T09:17:46.832Z,1.83
2022-08-11T09:20:19.191Z,1.77
2022-08-11T09:26:15.629Z,1.87
2022-08-11T09:28:46.684Z,2.62
2022-08-11T09:31:15.858Z,2.15
2022-08-11T09:33:45.672Z,2.37
2022-08-11T09:36:32.458Z,2.50
2022-08-11T09:39:21.586Z,2.20
2022-08-11T09:42:00.473Z,1.30
2022-08-11T09:44:52.950Z,1.15
2022-08-11T09:47:24.103Z,1.20
2022-08-11T09:49:55.083Z,1.00
2022-08-11T09:52:24.882Z,1.12
2022-08-11T09:54:54.391Z,1.25
2022-08-11T09:57:41.416Z,1.48
2022-08-11T10:00:15.145Z,1.15
2022-08-11T10:02:46.044Z,1.52
2022-08-11T10:05:35.974Z,1.05
2022-08-11T10:08:05.953Z,0.98
2022-08-11T10:10:37.419Z,1.20
2022-08-11T10:14:10.550Z,1.67
2022-08-11T10:16:15.626Z,1.40
2022-08-11T10:18:52.634Z,1.25
2022-08-11T10:21:30.334Z,1.40
2022-08-11T10:24:20.278Z,1.23
2022-08-11T10:26:56.703Z,1.17
2022-08-11T10:29:44.427Z,1.20
2022-08-11T10:32:49.417Z,1.20
2022-08-11T10:35:27.371Z,1.58
2022-08-11T10:38:08.784Z,1.40
2022-08-11T10:40:40.472Z,1.30
2022-08-11T10:43:13.780Z,1.17
2022-08-11T10:46:03.615Z,1.70
2022-08-11T10:48:37.824Z,0.98
2022-08-11T10:51:15.102Z,1.33
2022-08-11T10:54:03.195Z,1.48
2022-08-11T10:56:53.305Z,1.30
2022-08-11T10:59:23.143Z,1.30
2022-08-11T11:01:54.133Z,1.35
2022-08-11T11:04:36.829Z,1.40
2022-08-11T11:07:13.925Z,1.50
2022-08-11T11:09:45.310Z,1.40
2022-08-11T11:12:38.219Z,1.30
2022-08-11T11:15:25.573Z,1.60
2022-08-11T11:18:01.770Z,1.58
2022-08-11T11:20:43.719Z,1.27
2022-08-11T11:23:19.952Z,1.60
2022-08-11T11:26:10.864Z,1.15
2022-08-11T11:28:59.540Z,1.30
2022-08-11T11:31:37.014Z,1.27
2022-08-11T11:34:20.566Z,1.20
2022-08-11T11:36:51.534Z,1.12
2022-08-11T11:39:23.125Z,1.20
2022-08-11T11:41:55.528Z,1.10
2022-08-11T11:44:25.184Z,1.42
2022-08-11T11:46:53.731Z,1.27
2022-08-11T11:52:00.768Z,1.40
2022-08-11T11:54:32.403Z,1.30
2022-08-11T11:57:21.776Z,1.40
2022-08-11T12:00:09.991Z,1.40
2022-08-11T12:02:41.254Z,1.35
2022-08-11T12:05:11.152Z,1.30
2022-08-11T12:08:10.509Z,1.55
2022-08-11T12:10:42.034Z,1.20
2022-08-11T12:13:27.850Z,1.35
2022-08-11T12:16:33.611Z,1.30
2022-08-11T12:18:47.420Z,1.23
2022-08-11T12:21:17.976Z,1.30
2022-08-11T12:24:07.371Z,1.45
2022-08-11T12:27:15.007Z,1.40
2022-08-11T12:29:45.268Z,1.33
2022-08-11T12:32:13.989Z,1.50
2022-08-11T12:34:42.342Z,1.23
2022-08-11T12:37:13.778Z,1.30
2022-08-11T12:40:16.866Z,1.55
2022-08-11T12:43:21.645Z,1.27
2022-08-11T12:45:58.364Z,1.23
2022-08-11T12:49:00.589Z,1.17
2022-08-11T12:52:00.906Z,1.00
2022-08-11T12:54:47.531Z,1.65
2022-08-11T12:57:37.319Z,1.30
2022-08-11T13:00:25.456Z,0.80
2022-08-11T13:03:13.490Z,1.20
2022-08-11T13:05:44.502Z,1.30
2022-08-11T13:08:15.175Z,1.10
2022-08-11T13:11:03.869Z,1.50
2022-08-11T13:13:52.965Z,1.35
2022-08-11T13:16:23.451Z,1.15
2022-08-11T13:18:53.513Z,1.35
2022-08-11T13:21:23.595Z,1.00
2022-08-11T13:23:59.611Z,1.15
2022-08-11T13:26:46.620Z,1.42
2022-08-11T13:29:19.292Z,1.37
2022-08-11T13:31:47.508Z,1.40
2022-08-11T13:34:16.816Z,1.40
2022-08-11T13:36:45.852Z,1.25
2022-08-11T13:39:14.749Z,1.00
2022-08-11T13:41:47.672Z,1.25
2022-08-11T13:44:24.832Z,1.10
2022-08-11T13:46:55.327Z,1.10
2022-08-11T13:49:24.483Z,1.10
2022-08-11T13:51:53.981Z,1.30
2022-08-11T13:54:24.699Z,1.10
2022-08-11T13:56:57.813Z,1.10
2022-08-11T13:59:29.858Z,1.48
2022-08-11T14:02:28.268Z,1.23
2022-08-11T14:04:56.346Z,1.50
2022-08-11T14:07:28.377Z,1.17
2022-08-11T14:09:59.745Z,1.10
2022-08-11T14:12:49.959Z,1.33
2022-08-11T14:15:24.962Z,1.40
2022-08-11T14:17:56.339Z,1.30
2022-08-11T14:20:49.172Z,1.15
2022-08-11T14:23:17.022Z,1.00
2022-08-11T14:26:01.853Z,1.15
2022-08-11T14:28:44.398Z,1.30
2022-08-11T14:31:16.035Z,1.33
2022-08-11T14:34:00.409Z,1.17
2022-08-11T14:36:33.973Z,1.40
2022-08-11T14:39:04.438Z,1.20
2022-08-11T14:42:10.513Z,1.12
2022-08-11T14:45:00.996Z,1.20
2022-08-11T14:47:31.797Z,0.93
2022-08-11T14:50:11.867Z,1.10
2022-08-11T14:52:46.802Z,1.30
2022-08-11T14:55:34.183Z,1.00
2022-08-11T14:58:03.323Z,1.42
2022-08-11T15:00:35.118Z,1.45
2022-08-11T15:03:10.947Z,1.40
2022-08-11T15:05:54.297Z,2.95
2022-08-11T15:08:49.451Z,1.33
2022-08-11T15:11:37.450Z,1.45
2022-08-11T15:14:08.920Z,1.33
2022-08-11T15:17:12.327Z,1.30
2022-08-11T15:20:04.924Z,1.05
2022-08-11T15:22:51.196Z,1.30
2022-08-11T15:25:20.961Z,1.05
2022-08-11T15:28:10.000Z,1.15
2022-08-11T15:31:08.231Z,1.27
2022-08-11T15:33:58.028Z,1.50
2022-08-11T15:36:46.051Z,0.80
2022-08-11T15:39:21.104Z,1.33
2022-08-11T15:42:12.707Z,1.55
2022-08-11T15:45:04.587Z,1.30
2022-08-11T15:47:38.728Z,1.30
2022-08-11T15:50:15.682Z,1.00
2022-08-11T15:52:53.641Z,1.20
2022-08-11T15:55:23.824Z,1.20
2022-08-11T15:58:12.307Z,1.33
2022-08-11T16:01:08.588Z,1.33
2022-08-11T16:04:08.082Z,1.23
2022-08-11T16:06:49.307Z,1.35
2022-08-11T16:09:39.719Z,0.85
2022-08-11T16:12:18.462Z,1.10
2022-08-11T16:15:10.829Z,1.12
2022-08-11T16:17:44.259Z,1.08
2022-08-11T16:20:15.233Z,1.15
2022-08-11T16:23:01.464Z,1.12
2022-08-11T16:27:05.524Z,1.20
2022-08-11T16:28:26.172Z,1.33
2022-08-11T16:30:56.186Z,1.45
2022-08-11T16:33:49.465Z,1.20
2022-08-11T16:36:49.189Z,1.05
2022-08-11T16:39:19.610Z,1.27
2022-08-11T16:42:07.662Z,1.15
2022-08-11T16:45:15.316Z,1.20
2022-08-11T16:48:03.682Z,1.33
2022-08-11T16:50:33.835Z,1.10
2022-08-11T16:53:02.006Z,1.75
2022-08-11T16:55:51.539Z,1.02
2022-08-11T16:58:44.702Z,1.48
2022-08-11T17:01:14.523Z,1.23
2022-08-11T17:04:04.433Z,1.30
2022-08-11T17:06:52.732Z,1.27
2022-08-11T17:09:41.360Z,0.90
2022-08-11T17:12:30.051Z,1.17
2022-08-11T17:15:01.536Z,1.10
2022-08-11T17:17:36.958Z,1.58
2022-08-11T17:20:38.372Z,1.45
2022-08-11T17:23:18.136Z,1.30
2022-08-11T17:26:03.565Z,1.42
2022-08-11T17:28:35.920Z,1.42
2022-08-11T17:31:23.799Z,1.67
2022-08-11T17:34:11.370Z,1.37
2022-08-11T17:36:45.564Z,1.40
2022-08-11T17:39:16.265Z,1.67
2022-08-11T17:42:05.124Z,1.48
2022-08-11T17:44:54.431Z,1.80
2022-08-11T17:47:43.628Z,1.80
2022-08-11T17:50:16.955Z,1.50
2022-08-11T17:53:06.203Z,1.52
2022-08-11T17:55:53.832Z,2.00
2022-08-11T17:58:41.548Z,2.20
2022-08-11T18:01:20.544Z,2.47
2022-08-11T18:03:56.255Z,2.55
2022-08-11T18:06:34.773Z,2.53
2022-08-11T18:09:23.186Z,1.98
2022-08-11T18:12:11.383Z,2.05
2022-08-11T18:14:59.059Z,1.70
2022-08-11T18:17:46.034Z,1.80
2022-08-11T18:20:32.984Z,1.50
2022-08-11T18:23:21.779Z,1.58
2022-08-11T18:26:28.787Z,1.77
2022-08-11T18:29:17.624Z,1.70
2022-08-11T18:32:08.759Z,1.58
2022-08-11T18:35:00.245Z,1.40
2022-08-11T18:37:51.206Z,1.70
2022-08-11T18:40:41.034Z,1.62
2022-08-11T18:43:30.281Z,1.62
2022-08-11T18:46:19.462Z,1.30
2022-08-11T18:49:15.370Z,1.60
2022-08-11T18:52:06.547Z,1.70
2022-08-11T18:54:56.416Z,1.55
2022-08-11T18:57:49.432Z,1.50
2022-08-11T19:00:40.048Z,1.90
2022-08-11T19:03:26.448Z,1.60
2022-08-11T19:06:38.874Z,1.70
2022-08-11T19:09:26.258Z,1.40
2022-08-11T19:12:13.678Z,1.35
2022-08-11T19:15:01.476Z,1.85
2022-08-11T19:17:49.461Z,1.50
2022-08-11T19:20:38.518Z,1.90
2022-08-11T19:23:27.451Z,1.50
2022-08-11T19:26:16.309Z,1.40
2022-08-11T19:29:05.185Z,1.62
2022-08-11T19:31:51.733Z,2.58
2022-08-11T19:34:39.555Z,2.10
2022-08-11T19:37:27.269Z,1.77
2022-08-11T19:40:16.628Z,1.80
2022-08-11T19:43:14.762Z,1.85
2022-08-11T19:46:11.861Z,1.62
2022-08-11T19:48:58.921Z,1.33
2022-08-11T19:51:47.439Z,1.75
2022-08-11T19:54:42.913Z,1.42
2022-08-11T19:57:29.946Z,1.00
2022-08-11T20:00:17.535Z,1.45
2022-08-11T20:03:08.736Z,1.30
2022-08-11T20:05:59.716Z,1.52
2022-08-11T20:08:48.707Z,1.50
2022-08-11T20:11:36.545Z,1.33
2022-08-11T20:14:25.299Z,1.35
2022-08-11T20:17:13.847Z,1.20
2022-08-11T20:22:49.271Z,1.08
2022-08-11T20:25:36.720Z,1.20
2022-08-11T20:28:24.130Z,1.17
2022-08-11T20:31:11.923Z,1.25
2022-08-11T20:34:01.119Z,1.27
2022-08-11T20:36:54.057Z,1.00
2022-08-11T20:39:42.042Z,1.35
2022-08-11T20:42:30.717Z,1.10
2022-08-11T20:45:23.323Z,1.27
2022-08-11T20:48:14.701Z,1.25
2022-08-11T20:51:06.139Z,1.33
2022-08-11T20:53:53.805Z,1.02
2022-08-11T20:56:43.410Z,1.20
2022-08-11T20:59:33.299Z,1.42
2022-08-11T21:02:25.992Z,1.40
2022-08-11T21:05:15.913Z,1.30
2022-08-11T21:08:13.197Z,1.73
2022-08-11T21:11:00.408Z,1.23
2022-08-11T21:13:51.498Z,1.10
2022-08-11T21:16:47.449Z,1.35
2022-08-11T21:19:59.893Z,1.10
2022-08-11T21:22:59.497Z,1.23
2022-08-11T21:25:59.823Z,1.20
2022-08-11T21:28:47.818Z,0.80
2022-08-11T21:31:35.057Z,0.98
2022-08-11T21:34:22.037Z,1.10
2022-08-11T21:37:08.667Z,1.10
2022-08-11T21:39:55.811Z,1.50
2022-08-11T21:42:43.938Z,1.15
2022-08-11T21:45:31.864Z,1.10
2022-08-11T21:48:19.539Z,1.10
2022-08-11T21:51:05.645Z,1.15
2022-08-11T21:53:52.480Z,1.10
2022-08-11T21:56:39.032Z,1.12
2022-08-11T21:59:26.520Z,0.90
2022-08-11T22:02:13.099Z,1.20
2022-08-11T22:04:59.990Z,1.10
2022-08-11T22:07:46.965Z,1.52
2022-08-11T22:10:42.081Z,1.52
2022-08-11T22:13:30.291Z,1.60
2022-08-11T22:16:17.864Z,1.37
2022-08-11T22:19:04.782Z,1.40
2022-08-11T22:22:02.535Z,1.60
2022-08-11T22:24:51.343Z,1.30
2022-08-11T22:27:37.513Z,1.73
2022-08-11T22:30:25.366Z,1.25
2022-08-11T22:33:15.162Z,1.55
2022-08-11T22:36:02.575Z,1.50
2022-08-11T22:38:51.068Z,1.50
2022-08-11T22:41:37.390Z,1.10
2022-08-11T22:44:23.780Z,1.20
2022-08-11T22:47:12.384Z,1.37
2022-08-11T22:50:01.281Z,0.80
2022-08-11T22:52:48.163Z,1.40
2022-08-11T22:55:34.875Z,1.00
2022-08-11T22:58:22.105Z,1.55
2022-08-11T23:01:08.090Z,1.40
2022-08-11T23:03:54.276Z,1.02
2022-08-11T23:06:42.618Z,1.05
2022-08-11T23:09:28.730Z,1.12
2022-08-11T23:12:16.453Z,1.00
2022-08-11T23:15:03.720Z,1.20
2022-08-11T23:17:50.833Z,1.00
2022-08-11T23:20:39.561Z,1.12
2022-08-11T23:23:32.957Z,1.10
2022-08-11T23:26:19.908Z,1.05
2022-08-11T23:29:06.323Z,0.98
2022-08-11T23:31:54.129Z,1.12
2022-08-11T23:35:37.253Z,1.35
2022-08-11T23:37:49.179Z,1.30
2022-08-11T23:40:36.073Z,1.20
2022-08-11T23:43:21.820Z,1.20
2022-08-11T23:46:07.838Z,1.30
2022-08-11T23:48:55.790Z,1.25
2022-08-11T23:51:42.399Z,1.73
2022-08-11T23:54:31.627Z,1.25
2022-08-11T23:57:22.677Z,1.20
